createdAt,value
2023-02-24T00:02:04.857Z,12.38
2023-02-24T00:04:38.511Z,14.27
2023-02-24T00:07:10.411Z,15.55
2023-02-24T00:09:39.298Z,18.83
2023-02-24T00:12:12.000Z,15.35
2023-02-24T00:14:42.376Z,23.02
2023-02-24T00:17:14.420Z,18.42
2023-02-24T00:19:42.960Z,22.17
2023-02-24T00:22:13.455Z,22.80
2023-02-24T00:27:12.035Z,14.50
2023-02-24T00:29:41.987Z,16.15
2023-02-24T00:32:13.304Z,16.00
2023-02-24T00:34:43.197Z,20.27
2023-02-24T00:37:15.274Z,12.27
2023-02-24T00:39:46.146Z,11.93
2023-02-24T00:42:14.910Z,11.68
2023-02-24T00:44:47.779Z,18.88
2023-02-24T00:47:17.657Z,11.00
2023-02-24T00:49:46.246Z,14.68
2023-02-24T00:52:19.278Z,10.95
2023-02-24T00:54:49.321Z,14.77
2023-02-24T00:57:20.743Z,15.07
2023-02-24T00:59:51.339Z,17.10
2023-02-24T01:04:49.912Z,15.15
2023-02-24T01:07:19.668Z,18.15
2023-02-24T01:09:51.242Z,17.33
2023-02-24T01:12:33.447Z,10.45
2023-02-24T01:15:05.080Z,14.50
2023-02-24T01:17:36.561Z,15.48
2023-02-24T01:20:15.845Z,15.93
2023-02-24T01:22:47.580Z,17.55
2023-02-24T01:25:17.974Z,16.52
2023-02-24T01:27:46.364Z,13.85
2023-02-24T01:30:17.652Z,14.55
2023-02-24T01:32:48.007Z,14.43
2023-02-24T01:37:47.437Z,17.63
2023-02-24T01:40:21.667Z,10.10
2023-02-24T01:42:51.158Z,14.85
2023-02-24T01:45:28.612Z,14.48
2023-02-24T01:48:02.392Z,10.88
2023-02-24T01:50:33.017Z,14.60
2023-02-24T01:55:38.147Z,12.93
2023-02-24T01:58:12.820Z,17.75
2023-02-24T02:00:46.994Z,14.35
2023-02-24T02:03:25.127Z,15.45
2023-02-24T02:05:58.967Z,17.20
2023-02-24T02:08:29.704Z,17.20
2023-02-24T02:11:06.049Z,12.95
2023-02-24T02:13:38.101Z,16.13
2023-02-24T02:16:44.518Z,18.30
2023-02-24T02:19:57.924Z,11.27
2023-02-24T02:22:59.117Z,14.38
2023-02-24T02:25:46.112Z,16.02
2023-02-24T02:29:25.452Z,14.23
2023-02-24T02:32:51.862Z,14.57
2023-02-24T02:35:27.769Z,11.15
2023-02-24T02:38:06.802Z,18.13
2023-02-24T02:40:42.237Z,15.18
2023-02-24T02:43:18.765Z,16.75
2023-02-24T02:45:56.074Z,15.63
2023-02-24T02:48:33.989Z,11.63
2023-02-24T02:51:11.232Z,14.00
2023-02-24T02:53:49.356Z,13.43
2023-02-24T02:56:22.862Z,12.23
2023-02-24T02:58:55.498Z,12.32
2023-02-24T03:01:29.667Z,10.55
2023-02-24T03:04:04.550Z,10.43
2023-02-24T03:06:37.702Z,13.40
2023-02-24T03:09:12.381Z,9.70
2023-02-24T03:11:42.552Z,13.40
2023-02-24T03:14:17.053Z,16.10
2023-02-24T03:16:49.925Z,12.82
2023-02-24T03:19:24.109Z,15.55
2023-02-24T03:22:01.241Z,8.43
2023-02-24T03:24:30.337Z,13.00
2023-02-24T03:27:07.889Z,10.80
2023-02-24T03:29:45.821Z,12.40
2023-02-24T03:32:20.221Z,12.65
2023-02-24T03:34:56.776Z,10.82
2023-02-24T03:37:29.926Z,10.75
2023-02-24T03:40:11.619Z,8.95
2023-02-24T03:42:45.017Z,13.10
2023-02-24T03:45:16.271Z,10.23
2023-02-24T03:47:46.741Z,11.45
2023-02-24T03:50:17.312Z,10.35
2023-02-24T03:53:02.232Z,9.73
2023-02-24T03:55:44.917Z,7.07
2023-02-24T03:58:21.768Z,11.15
2023-02-24T04:01:05.686Z,11.27
2023-02-24T04:03:41.021Z,8.63
2023-02-24T04:06:30.835Z,10.05
2023-02-24T04:09:08.974Z,9.82
2023-02-24T04:11:54.466Z,8.93
2023-02-24T04:14:30.521Z,13.75
2023-02-24T04:17:07.856Z,10.90
2023-02-24T04:19:41.562Z,13.32
2023-02-24T04:22:17.805Z,16.80
2023-02-24T04:24:52.429Z,12.02
2023-02-24T04:27:22.188Z,8.43
2023-02-24T04:29:57.064Z,9.10
2023-02-24T04:32:29.760Z,12.20
2023-02-24T04:35:06.328Z,9.20
2023-02-24T04:37:37.139Z,10.07
2023-02-24T04:40:12.276Z,12.60
2023-02-24T04:42:46.576Z,17.67
2023-02-24T04:45:16.594Z,9.52
2023-02-24T04:47:49.470Z,10.93
2023-02-24T04:50:23.954Z,17.27
2023-02-24T04:52:54.213Z,15.63
2023-02-24T04:55:29.498Z,21.15
2023-02-24T04:57:58.584Z,14.38
2023-02-24T05:00:29.488Z,10.73
2023-02-24T05:02:59.205Z,19.73
2023-02-24T05:05:28.594Z,10.63
2023-02-24T05:08:02.969Z,13.20
2023-02-24T05:10:39.332Z,12.65
2023-02-24T05:13:09.388Z,20.15
2023-02-24T05:15:42.309Z,14.80
2023-02-24T05:18:17.087Z,15.55
2023-02-24T05:21:07.302Z,14.32
2023-02-24T05:23:39.287Z,12.05
2023-02-24T05:26:10.654Z,15.95
2023-02-24T05:28:41.525Z,13.45
2023-02-24T05:31:14.996Z,11.90
2023-02-24T05:33:46.297Z,19.55
2023-02-24T05:36:18.276Z,14.43
2023-02-24T05:38:48.044Z,18.38
2023-02-24T05:41:20.361Z,15.93
2023-02-24T05:43:53.180Z,16.98
2023-02-24T05:46:28.218Z,17.30
2023-02-24T05:48:58.092Z,18.33
2023-02-24T05:51:26.825Z,16.20
2023-02-24T05:53:56.139Z,11.15
2023-02-24T05:56:27.300Z,12.95
2023-02-24T05:59:01.994Z,14.15
2023-02-24T06:01:31.394Z,13.38
2023-02-24T06:04:05.804Z,15.30
2023-02-24T06:06:36.462Z,17.52
2023-02-24T06:09:10.918Z,21.80
2023-02-24T06:11:42.304Z,15.65
2023-02-24T06:14:12.404Z,17.88
2023-02-24T06:16:43.591Z,20.70
2023-02-24T06:19:14.501Z,13.00
2023-02-24T06:21:44.094Z,18.05
2023-02-24T06:24:15.158Z,20.40
2023-02-24T06:26:45.025Z,17.60
2023-02-24T06:29:15.582Z,13.98
2023-02-24T06:34:15.007Z,16.65
2023-02-24T06:39:14.646Z,14.57
2023-02-24T06:41:44.560Z,16.88
2023-02-24T06:44:13.801Z,15.10
2023-02-24T06:46:42.224Z,16.90
2023-02-24T06:49:11.648Z,13.75
2023-02-24T06:51:41.148Z,14.93
2023-02-24T06:54:09.975Z,17.23
2023-02-24T06:56:39.267Z,17.48
2023-02-24T06:59:11.940Z,21.65
2023-02-24T07:01:45.378Z,18.65
2023-02-24T07:04:20.985Z,21.40
2023-02-24T07:06:53.188Z,19.27
2023-02-24T07:09:25.249Z,15.60
2023-02-24T07:11:56.769Z,21.33
2023-02-24T07:14:30.614Z,20.80
2023-02-24T07:17:00.091Z,16.25
2023-02-24T07:19:32.368Z,19.75
2023-02-24T07:22:03.630Z,13.57
2023-02-24T07:24:37.179Z,16.35
2023-02-24T07:27:08.491Z,16.63
2023-02-24T07:29:39.420Z,16.95
2023-02-24T07:32:10.310Z,20.15
2023-02-24T07:34:40.264Z,22.65
2023-02-24T07:37:10.122Z,20.02
2023-02-24T07:39:40.727Z,21.45
2023-02-24T07:44:57.191Z,20.23
2023-02-24T07:47:26.547Z,24.25
2023-02-24T07:49:55.470Z,22.85
2023-02-24T07:52:24.049Z,21.88
2023-02-24T07:54:52.412Z,26.70
2023-02-24T07:57:20.791Z,19.40
2023-02-24T07:59:49.361Z,22.80
2023-02-24T08:02:19.654Z,25.98
2023-02-24T08:04:51.617Z,20.95
2023-02-24T08:07:25.049Z,21.30
2023-02-24T08:10:12.361Z,19.48
2023-02-24T08:12:44.953Z,22.15
2023-02-24T08:15:24.110Z,21.15
2023-02-24T08:17:59.454Z,17.27
2023-02-24T08:20:30.223Z,21.65
2023-02-24T08:22:58.706Z,16.95
2023-02-24T08:25:35.982Z,26.35
2023-02-24T08:28:11.339Z,20.85
2023-02-24T08:30:45.630Z,20.50
2023-02-24T08:33:21.961Z,22.50
2023-02-24T08:36:01.134Z,20.48
2023-02-24T08:38:39.980Z,25.42
2023-02-24T08:41:17.816Z,24.33
2023-02-24T08:43:47.521Z,25.98
2023-02-24T08:46:21.159Z,26.08
2023-02-24T08:48:55.641Z,25.48
2023-02-24T08:51:28.943Z,27.80
2023-02-24T08:54:00.527Z,16.73
2023-02-24T08:56:34.637Z,21.52
2023-02-24T08:59:06.623Z,15.90
2023-02-24T09:01:40.260Z,21.10
2023-02-24T09:04:13.314Z,19.92
2023-02-24T09:06:46.094Z,22.83
2023-02-24T09:09:18.578Z,19.80
2023-02-24T09:11:48.372Z,20.00
2023-02-24T09:14:27.494Z,30.27
2023-02-24T09:17:05.950Z,31.05
2023-02-24T09:19:59.057Z,26.33
2023-02-24T09:22:32.510Z,22.77
2023-02-24T09:25:18.831Z,21.77
2023-02-24T09:27:52.345Z,24.73
2023-02-24T09:30:36.718Z,33.70
2023-02-24T09:33:18.109Z,26.73
2023-02-24T09:35:52.187Z,23.70
2023-02-24T09:38:42.383Z,27.02
2023-02-24T09:41:31.717Z,25.75
2023-02-24T09:44:07.732Z,20.52
2023-02-24T09:46:54.017Z,25.90
2023-02-24T09:49:28.092Z,23.33
2023-02-24T09:52:08.933Z,24.33
2023-02-24T09:54:37.373Z,20.65
2023-02-24T09:57:16.976Z,25.90
2023-02-24T10:00:01.516Z,24.73
2023-02-24T10:03:00.134Z,23.02
2023-02-24T10:05:38.387Z,24.33
2023-02-24T10:08:18.639Z,20.70
2023-02-24T10:11:07.047Z,26.67
2023-02-24T10:13:40.300Z,24.60
2023-02-24T10:16:12.989Z,24.83
2023-02-24T10:18:48.529Z,19.48
2023-02-24T10:21:34.944Z,21.33
2023-02-24T10:24:14.815Z,27.55
2023-02-24T10:27:00.706Z,24.15
2023-02-24T10:30:01.145Z,28.38
2023-02-24T10:32:41.448Z,29.17
2023-02-24T10:35:16.703Z,27.05
2023-02-24T10:37:45.940Z,28.88
2023-02-24T10:40:26.486Z,25.63
2023-02-24T10:45:45.214Z,27.17
2023-02-24T10:48:40.251Z,26.10
2023-02-24T10:51:19.926Z,26.05
2023-02-24T10:54:10.149Z,27.98
2023-02-24T10:56:44.862Z,24.42
2023-02-24T10:59:41.330Z,29.25
2023-02-24T11:02:32.721Z,22.55
2023-02-24T11:05:27.250Z,21.27
2023-02-24T11:08:26.273Z,25.20
2023-02-24T11:10:58.914Z,22.42
2023-02-24T11:13:46.632Z,26.42
2023-02-24T11:16:41.087Z,28.85
2023-02-24T11:19:12.273Z,25.55
2023-02-24T11:21:42.750Z,25.30
2023-02-24T11:24:18.688Z,27.05
2023-02-24T11:26:48.387Z,26.73
2023-02-24T11:29:38.897Z,26.03
2023-02-24T11:32:25.693Z,25.55
2023-02-24T11:34:58.169Z,22.02
2023-02-24T11:37:38.986Z,27.30
2023-02-24T11:40:18.738Z,25.58
2023-02-24T11:42:54.077Z,30.67
2023-02-24T11:45:31.618Z,31.05
2023-02-24T11:48:05.214Z,35.78
2023-02-24T11:50:44.550Z,41.35
2023-02-24T11:53:29.104Z,34.22
2023-02-24T11:56:04.977Z,39.25
2023-02-24T11:58:42.558Z,45.53
2023-02-24T12:01:24.439Z,43.47
2023-02-24T12:03:58.824Z,51.45
2023-02-24T12:06:32.204Z,46.22
2023-02-24T12:09:09.455Z,53.30
2023-02-24T12:11:47.044Z,45.67
2023-02-24T12:14:34.674Z,48.45
2023-02-24T12:17:18.296Z,55.22
2023-02-24T12:20:05.668Z,43.45
2023-02-24T12:22:46.057Z,38.50
2023-02-24T12:25:16.804Z,48.95
2023-02-24T12:28:01.906Z,51.85
2023-02-24T12:30:57.662Z,42.08
2023-02-24T12:33:45.697Z,48.60
2023-02-24T12:36:30.955Z,42.28
2023-02-24T12:39:12.721Z,54.00
2023-02-24T12:41:58.555Z,46.47
2023-02-24T12:44:38.411Z,49.08
2023-02-24T12:47:12.832Z,45.22
2023-02-24T12:50:13.938Z,54.85
2023-02-24T12:52:56.222Z,39.55
2023-02-24T12:55:32.510Z,48.65
2023-02-24T12:58:10.590Z,40.95
2023-02-24T13:00:52.095Z,41.78
2023-02-24T13:03:36.977Z,42.35
2023-02-24T13:06:17.059Z,52.53
2023-02-24T13:08:56.945Z,45.10
2023-02-24T13:11:38.669Z,41.33
2023-02-24T13:14:21.243Z,47.58
2023-02-24T13:16:50.030Z,47.33
2023-02-24T13:19:31.125Z,41.83
2023-02-24T13:22:08.704Z,42.88
2023-02-24T13:24:39.177Z,48.97
2023-02-24T13:27:24.465Z,40.90
2023-02-24T13:29:57.584Z,41.75
2023-02-24T13:32:33.599Z,44.25
2023-02-24T13:35:06.016Z,46.75
2023-02-24T13:37:39.365Z,47.70
2023-02-24T13:40:28.268Z,45.38
2023-02-24T13:43:04.722Z,38.85
2023-02-24T13:45:34.862Z,52.20
2023-02-24T13:48:34.569Z,40.97
2023-02-24T13:51:28.833Z,41.03
2023-02-24T13:54:14.927Z,38.35
2023-02-24T13:56:50.245Z,44.17
2023-02-24T13:59:57.739Z,39.75
2023-02-24T14:02:30.226Z,36.10
2023-02-24T14:05:03.452Z,32.75
2023-02-24T14:07:37.281Z,42.92
2023-02-24T14:10:19.190Z,30.52
2023-02-24T14:12:49.429Z,31.30
2023-02-24T14:15:22.026Z,35.75
2023-02-24T14:17:59.685Z,25.15
2023-02-24T14:20:32.654Z,34.75
2023-02-24T14:23:02.337Z,24.67
2023-02-24T14:25:37.747Z,32.42
2023-02-24T14:28:06.486Z,29.40
2023-02-24T14:30:38.987Z,31.83
2023-02-24T14:33:28.609Z,29.00
2023-02-24T14:35:57.464Z,31.75
2023-02-24T14:38:35.058Z,33.22
2023-02-24T14:41:08.784Z,26.13
2023-02-24T14:43:42.950Z,26.63
2023-02-24T14:46:11.494Z,30.48
2023-02-24T14:48:39.941Z,28.23
2023-02-24T14:51:13.562Z,27.27
2023-02-24T14:53:49.036Z,22.60
2023-02-24T14:56:20.971Z,22.10
2023-02-24T14:58:53.718Z,20.73
2023-02-24T15:01:30.727Z,24.42
2023-02-24T15:04:10.836Z,24.58
2023-02-24T15:06:43.151Z,28.65
2023-02-24T15:09:16.702Z,25.15
2023-02-24T15:11:46.665Z,18.58
2023-02-24T15:14:23.764Z,24.73
2023-02-24T15:16:57.641Z,20.63
2023-02-24T15:19:33.827Z,34.72
2023-02-24T15:22:02.296Z,18.00
2023-02-24T15:24:34.076Z,22.60
2023-02-24T15:27:22.951Z,22.25
2023-02-24T15:30:02.279Z,23.27
2023-02-24T15:32:36.536Z,24.50
2023-02-24T15:35:06.020Z,18.38
2023-02-24T15:37:42.690Z,15.05
2023-02-24T15:40:21.675Z,16.92
2023-02-24T15:42:57.600Z,17.50
2023-02-24T15:45:34.556Z,17.00
2023-02-24T15:48:04.922Z,26.30
2023-02-24T15:50:33.450Z,20.77
2023-02-24T15:53:05.811Z,19.35
2023-02-24T15:55:34.176Z,23.23
2023-02-24T15:58:05.234Z,15.60
2023-02-24T16:00:33.789Z,29.27
2023-02-24T16:03:02.175Z,19.58
2023-02-24T16:05:30.809Z,20.17
2023-02-24T16:07:59.189Z,20.55
2023-02-24T16:10:30.283Z,20.92
2023-02-24T16:13:01.466Z,14.75
2023-02-24T16:15:35.600Z,15.95
2023-02-24T16:18:04.571Z,19.90
2023-02-24T16:20:35.770Z,14.93
2023-02-24T16:23:06.754Z,19.67
2023-02-24T16:25:41.868Z,19.02
2023-02-24T16:28:14.941Z,15.27
2023-02-24T16:30:46.454Z,27.10
2023-02-24T16:33:17.442Z,19.20
2023-02-24T16:35:46.807Z,19.42
2023-02-24T16:38:19.794Z,19.67
2023-02-24T16:40:50.469Z,20.10
2023-02-24T16:45:48.614Z,23.98
2023-02-24T16:48:22.509Z,21.45
2023-02-24T16:50:51.135Z,20.92
2023-02-24T16:53:22.706Z,22.63
2023-02-24T16:55:51.716Z,26.08
2023-02-24T16:58:20.378Z,25.38
2023-02-24T17:00:53.279Z,24.02
2023-02-24T17:03:25.010Z,25.63
2023-02-24T17:05:54.656Z,22.83
2023-02-24T17:08:23.168Z,26.90
2023-02-24T17:10:53.005Z,25.27
2023-02-24T17:13:23.095Z,23.33
2023-02-24T17:15:55.348Z,21.73
2023-02-24T17:18:24.489Z,28.67
2023-02-24T17:20:53.506Z,25.42
2023-02-24T17:23:22.206Z,27.50
2023-02-24T17:25:55.012Z,22.17
2023-02-24T17:28:23.743Z,25.38
2023-02-24T17:30:53.497Z,20.95
2023-02-24T17:33:22.015Z,14.50
2023-02-24T17:35:50.625Z,28.58
2023-02-24T17:38:23.148Z,21.02
2023-02-24T17:40:51.544Z,29.10
2023-02-24T17:43:20.399Z,25.95
2023-02-24T17:45:49.137Z,21.63
2023-02-24T17:48:19.507Z,19.98
2023-02-24T17:50:48.611Z,16.88
2023-02-24T17:53:17.310Z,24.02
2023-02-24T17:56:01.437Z,21.60
2023-02-24T17:58:31.164Z,16.73
2023-02-24T18:01:01.917Z,13.27
2023-02-24T18:03:32.431Z,18.58
2023-02-24T18:06:03.001Z,15.88
2023-02-24T18:11:01.560Z,18.65
2023-02-24T18:13:31.634Z,17.40
2023-02-24T18:16:01.538Z,19.60
2023-02-24T18:18:31.567Z,17.02
2023-02-24T18:21:04.148Z,16.73
2023-02-24T18:23:33.258Z,20.65
2023-02-24T18:26:03.681Z,21.25
2023-02-24T18:28:32.780Z,18.65
2023-02-24T18:31:03.218Z,16.85
2023-02-24T18:33:33.296Z,24.77
2023-02-24T18:36:02.541Z,28.83
2023-02-24T18:38:31.149Z,23.05
2023-02-24T18:41:01.131Z,22.05
2023-02-24T18:43:30.385Z,24.05
2023-02-24T18:46:00.800Z,23.15
2023-02-24T18:48:31.313Z,33.85
2023-02-24T18:51:01.776Z,25.02
2023-02-24T18:53:34.208Z,34.63
2023-02-24T18:56:03.451Z,31.30
2023-02-24T18:58:32.684Z,26.88
2023-02-24T19:01:02.244Z,36.35
2023-02-24T19:03:30.562Z,23.75
2023-02-24T19:06:00.472Z,34.58
2023-02-24T19:08:29.176Z,28.60
2023-02-24T19:10:58.117Z,28.23
2023-02-24T19:13:26.471Z,28.40
2023-02-24T19:15:54.911Z,30.25
2023-02-24T19:18:23.321Z,22.75
2023-02-24T19:20:51.764Z,28.83
2023-02-24T19:23:21.788Z,25.65
2023-02-24T19:25:50.325Z,25.65
2023-02-24T19:28:18.902Z,31.00
2023-02-24T19:30:47.611Z,32.58
2023-02-24T19:33:15.973Z,26.85
2023-02-24T19:35:44.998Z,28.10
2023-02-24T19:38:16.260Z,33.47
2023-02-24T19:40:46.538Z,31.38
2023-02-24T19:43:14.932Z,41.80
2023-02-24T19:45:44.370Z,33.92
2023-02-24T19:48:13.033Z,33.15
2023-02-24T19:50:42.410Z,40.90
2023-02-24T19:53:11.234Z,33.05
2023-02-24T19:55:39.793Z,32.45
2023-02-24T19:58:09.576Z,30.00
2023-02-24T20:00:38.156Z,37.07
2023-02-24T20:03:06.549Z,32.22
2023-02-24T20:05:37.480Z,30.90
2023-02-24T20:08:06.355Z,33.25
2023-02-24T20:10:34.715Z,32.85
2023-02-24T20:13:06.107Z,30.17
2023-02-24T20:15:36.304Z,32.95
2023-02-24T20:18:07.678Z,27.30
2023-02-24T20:20:37.355Z,32.75
2023-02-24T20:23:05.792Z,32.13
2023-02-24T20:25:34.162Z,30.65
2023-02-24T20:28:03.485Z,36.17
2023-02-24T20:30:31.828Z,32.28
2023-02-24T20:33:01.705Z,31.98
2023-02-24T20:35:30.318Z,32.63
2023-02-24T20:37:58.691Z,44.08
2023-02-24T20:40:27.039Z,25.88
2023-02-24T20:42:55.482Z,31.55
2023-02-24T20:45:23.811Z,24.70
2023-02-24T20:47:52.126Z,18.05
2023-02-24T20:50:22.053Z,22.55
2023-02-24T20:52:50.504Z,16.88
2023-02-24T20:55:18.999Z,11.88
2023-02-24T20:57:47.379Z,16.80
2023-02-24T21:00:16.985Z,16.13
2023-02-24T21:02:45.772Z,21.60
2023-02-24T21:05:25.566Z,19.60
2023-02-24T21:07:54.916Z,18.50
2023-02-24T21:10:25.059Z,14.63
2023-02-24T21:12:53.581Z,18.83
2023-02-24T21:15:22.156Z,26.30
2023-02-24T21:17:50.515Z,19.88
2023-02-24T21:20:19.637Z,21.92
2023-02-24T21:22:49.342Z,19.45
2023-02-24T21:25:17.950Z,24.90
2023-02-24T21:27:48.431Z,22.15
2023-02-24T21:30:16.828Z,20.55
2023-02-24T21:32:45.195Z,27.30
2023-02-24T21:35:13.686Z,28.10
2023-02-24T21:37:42.090Z,32.10
2023-02-24T21:40:17.678Z,24.90
2023-02-24T21:42:47.063Z,26.38
2023-02-24T21:45:16.686Z,31.77
2023-02-24T21:47:45.305Z,25.27
2023-02-24T21:50:15.967Z,27.95
2023-02-24T21:57:46.084Z,19.80
2023-02-24T22:00:20.251Z,20.98
2023-02-24T22:02:49.990Z,16.15
2023-02-24T22:05:20.329Z,21.23
2023-02-24T22:07:50.713Z,17.98
2023-02-24T22:10:23.397Z,17.27
2023-02-24T22:12:51.979Z,22.13
2023-02-24T22:15:20.593Z,18.02
2023-02-24T22:17:49.066Z,13.70
2023-02-24T22:20:17.466Z,23.40
2023-02-24T22:22:45.824Z,23.73
2023-02-24T22:25:14.156Z,20.30
2023-02-24T22:27:43.927Z,28.48
2023-02-24T22:30:14.089Z,26.70
2023-02-24T22:32:42.825Z,31.08
2023-02-24T22:35:11.381Z,39.20
2023-02-24T22:37:39.825Z,22.10
2023-02-24T22:40:10.086Z,24.73
2023-02-24T22:42:38.525Z,13.05
2023-02-24T22:45:10.788Z,18.95
2023-02-24T22:47:39.229Z,16.10
2023-02-24T22:50:08.551Z,17.98
2023-02-24T22:52:36.991Z,13.10
2023-02-24T22:55:06.064Z,16.17
2023-02-24T22:57:34.886Z,16.00
2023-02-24T23:00:04.109Z,16.08
2023-02-24T23:02:33.935Z,20.38
2023-02-24T23:05:02.324Z,15.18
2023-02-24T23:07:30.749Z,22.90
2023-02-24T23:09:59.538Z,14.35
2023-02-24T23:12:27.984Z,20.60
2023-02-24T23:14:56.302Z,29.52
2023-02-24T23:17:24.750Z,22.55
2023-02-24T23:19:54.602Z,22.17
2023-02-24T23:22:22.997Z,22.15
2023-02-24T23:24:51.872Z,20.98
2023-02-24T23:27:21.475Z,21.02
2023-02-24T23:29:49.996Z,28.95
2023-02-24T23:32:18.428Z,28.48
2023-02-24T23:34:47.032Z,22.27
2023-02-24T23:37:16.880Z,22.45
2023-02-24T23:39:45.497Z,24.17
2023-02-24T23:42:13.990Z,31.35
2023-02-24T23:44:42.332Z,29.33
2023-02-24T23:47:10.711Z,31.70
2023-02-24T23:49:47.930Z,23.75
2023-02-24T23:52:18.717Z,23.80
2023-02-24T23:54:50.029Z,30.88
2023-02-24T23:57:18.719Z,22.38
2023-02-24T23:59:47.038Z,32.67
